Archival Weather

Downtown Manhattan/Wall St

New York, Downtown Manhattan/Wall St (KJRB)

Report from: Friday, February 23, 2024 2:56 PM EST
Current time: Wednesday, May 29, 2024 7:31 PM EDT

Current weather – Weather history – Daily summaries
Weather forecast

Temperature7.8°C (46.0°F)
Dew point3.9°C (39.0°F)
Winds Calm
Visibility10 mi. (16.1 km)
Clouds Ceiling: Overcast 3,900 ft. (1,189 m)
Altimeter29.45 in.Hg (997 mB)
Relative humidity76 %
Density altitude-201 ft. (-61 m)
Sea-level pressure99.7 kPa (997 mB, 29.45 in.Hg)
Remarks Fully automated report
System requires maintenance
Automated weather observing station with precipitation discriminator
Precipitation sensor not operating
Flight conditions Visual Meteorological Conditions
Raw dataKJRB 231956Z AUTO 00000KT 10SM OVC039 08/04 A2945 RMK AO2 SLP973 T00780039 PNO $
An error has occurred. This application may no longer respond until reloaded. Reload 🗙